CheckWX is a tool to help pilots better visualize weather data.  It is not intended as a substitute for an official pre-flight weather briefing.

03:41:48 UTC

KLBX METAR
Texas Gulf Coast Regional Airport
Angleton/Lake Jackson, Texas, USA
Current

49 mins ago

KLBX 220253Z AUTO 15005KT 10SM CLR 27/25 A2995 RMK AO2 SLP140 T02720250 53002
Observed
Jul-22 @ 02:53 UTC
Wind
  • 150° at 5 KTS
Visibility
10 SM
Flight Rules
VFR
Cloud Levels
  • Clear skies
Temperature
27°C / 81°F
Dewpoint
25°C / 77°F
Heat Index
31°C / 88°F
Humidity
89%
Altimeter
29.95" Hg
Pressure
1014.22 hPa
Previous

2 hours ago

KLBX 220153Z AUTO 16003KT 10SM CLR 28/24 A2994 RMK AO2 SLP139 T02780244
Observed
Jul-22 @ 01:53 UTC
Wind
  • 160° at 3 KTS
Visibility
10 SM
Flight Rules
VFR
Cloud Levels
  • Clear skies
Temperature
28°C / 82°F
Dewpoint
24°C / 75°F
Heat Index
32°C / 89°F
Humidity
79%
Altimeter
29.94" Hg
Pressure
1013.92 hPa
Previous

3 hours ago

KLBX 220053Z AUTO 17011KT 10SM CLR 29/24 A2994 RMK AO2 SLP137 T02890244
Observed
Jul-22 @ 00:53 UTC
Wind
  • 170° at 11 KTS
Visibility
10 SM
Flight Rules
VFR
Cloud Levels
  • Clear skies
Temperature
29°C / 84°F
Dewpoint
24°C / 75°F
Heat Index
33°C / 92°F
Humidity
74%
Altimeter
29.94" Hg
Pressure
1013.92 hPa